sensor_id;sensor_type;location;lat;lon;timestamp;pressure;altitude;pressure_sealevel;temperature;humidity
66524;BME280;53350;52.210;5.160;2023-03-01T00:02:12;103307.47;;;3.80;66.31
66524;BME280;53350;52.210;5.160;2023-03-01T00:04:39;103298.72;;;3.75;66.19
66524;BME280;53350;52.210;5.160;2023-03-01T00:07:06;103300.97;;;3.71;66.47
66524;BME280;53350;52.210;5.160;2023-03-01T00:09:32;103304.34;;;3.70;66.38
66524;BME280;53350;52.210;5.160;2023-03-01T00:11:58;103298.25;;;3.68;66.36
66524;BME280;53350;52.210;5.160;2023-03-01T00:14:25;103305.03;;;3.67;66.44
66524;BME280;53350;52.210;5.160;2023-03-01T00:16:51;103306.66;;;3.65;66.24
66524;BME280;53350;52.210;5.160;2023-03-01T00:19:19;103306.44;;;3.62;66.16
66524;BME280;53350;52.210;5.160;2023-03-01T00:21:48;103300.31;;;3.58;66.31
66524;BME280;53350;52.210;5.160;2023-03-01T00:24:14;103298.56;;;3.57;66.59
66524;BME280;53350;52.210;5.160;2023-03-01T00:26:41;103300.22;;;3.57;66.53
66524;BME280;53350;52.210;5.160;2023-03-01T00:29:07;103300.22;;;3.57;66.77
66524;BME280;53350;52.210;5.160;2023-03-01T00:31:34;103290.03;;;3.57;66.89
66524;BME280;53350;52.210;5.160;2023-03-01T00:34:03;103294.34;;;3.58;66.93
66524;BME280;53350;52.210;5.160;2023-03-01T00:36:31;103284.84;;;3.55;66.56
66524;BME280;53350;52.210;5.160;2023-03-01T00:39:00;103282.06;;;3.51;66.68
66524;BME280;53350;52.210;5.160;2023-03-01T00:41:26;103280.81;;;3.44;66.43
66524;BME280;53350;52.210;5.160;2023-03-01T00:43:53;103284.84;;;3.40;66.43
66524;BME280;53350;52.210;5.160;2023-03-01T00:46:22;103272.84;;;3.38;66.20
66524;BME280;53350;52.210;5.160;2023-03-01T00:48:49;103288.13;;;3.38;66.72
66524;BME280;53350;52.210;5.160;2023-03-01T00:51:17;103284.59;;;3.36;66.57
66524;BME280;53350;52.210;5.160;2023-03-01T00:53:45;103285.19;;;3.31;66.35
66524;BME280;53350;52.210;5.160;2023-03-01T00:56:14;103286.72;;;3.28;66.54
66524;BME280;53350;52.210;5.160;2023-03-01T00:58:41;103288.31;;;3.26;66.64
66524;BME280;53350;52.210;5.160;2023-03-01T01:01:08;103287.50;;;3.27;66.68
66524;BME280;53350;52.210;5.160;2023-03-01T01:03:43;103282.31;;;3.25;66.44
66524;BME280;53350;52.210;5.160;2023-03-01T01:06:13;103278.00;;;3.24;66.26
66524;BME280;53350;52.210;5.160;2023-03-01T01:08:40;103278.00;;;3.24;66.27
66524;BME280;53350;52.210;5.160;2023-03-01T01:11:08;103275.19;;;3.20;66.26
66524;BME280;53350;52.210;5.160;2023-03-01T01:13:36;103273.47;;;3.19;66.33
66524;BME280;53350;52.210;5.160;2023-03-01T01:16:04;103269.16;;;3.18;66.26
66524;BME280;53350;52.210;5.160;2023-03-01T01:18:30;103266.44;;;3.15;66.32
66524;BME280;53350;52.210;5.160;2023-03-01T01:20:57;103260.97;;;3.08;66.01
66524;BME280;53350;52.210;5.160;2023-03-01T01:23:23;103258.97;;;3.03;66.42
66524;BME280;53350;52.210;5.160;2023-03-01T01:25:49;103260.63;;;3.02;66.50
66524;BME280;53350;52.210;5.160;2023-03-01T01:28:16;103255.44;;;3.01;66.31
66524;BME280;53350;52.210;5.160;2023-03-01T01:30:44;103251.22;;;3.01;66.39
66524;BME280;53350;52.210;5.160;2023-03-01T01:33:10;103248.66;;;3.01;66.33
66524;BME280;53350;52.210;5.160;2023-03-01T01:35:37;103246.13;;;3.01;66.23
66524;BME280;53350;52.210;5.160;2023-03-01T01:38:03;103245.16;;;2.99;66.41
66524;BME280;53350;52.210;5.160;2023-03-01T01:40:30;103240.84;;;2.98;66.39
66524;BME280;53350;52.210;5.160;2023-03-01T01:42:56;103241.66;;;2.97;66.43
66524;BME280;53350;52.210;5.160;2023-03-01T01:45:29;103241.75;;;2.99;66.25
66524;BME280;53350;52.210;5.160;2023-03-01T01:48:01;103241.66;;;2.97;66.16
66524;BME280;53350;52.210;5.160;2023-03-01T01:50:29;103244.22;;;2.97;66.43
66524;BME280;53350;52.210;5.160;2023-03-01T01:53:04;103239.81;;;2.94;66.45
66524;BME280;53350;52.210;5.160;2023-03-01T01:55:31;103231.28;;;2.94;65.82
66524;BME280;53350;52.210;5.160;2023-03-01T01:58:00;103236.28;;;2.92;66.16
66524;BME280;53350;52.210;5.160;2023-03-01T02:00:29;103239.63;;;2.91;66.21
66524;BME280;53350;52.210;5.160;2023-03-01T02:02:59;103232.59;;;2.87;66.18
66524;BME280;53350;52.210;5.160;2023-03-01T02:05:33;103229.28;;;2.88;66.11
66524;BME280;53350;52.210;5.160;2023-03-01T02:08:01;103232.59;;;2.87;66.42
66524;BME280;53350;52.210;5.160;2023-03-01T02:10:29;103230.84;;;2.86;66.15
66524;BME280;53350;52.210;5.160;2023-03-01T02:12:58;103230.84;;;2.86;66.45
66524;BME280;53350;52.210;5.160;2023-03-01T02:15:26;103227.50;;;2.87;66.29
66524;BME280;53350;52.210;5.160;2023-03-01T02:17:53;103226.63;;;2.87;66.45
66524;BME280;53350;52.210;5.160;2023-03-01T02:20:27;103226.63;;;2.87;66.27
66524;BME280;53350;52.210;5.160;2023-03-01T02:22:56;103229.28;;;2.88;66.00
66524;BME280;53350;52.210;5.160;2023-03-01T02:25:34;103223.22;;;2.86;66.36
66524;BME280;53350;52.210;5.160;2023-03-01T02:28:06;103228.38;;;2.88;66.45
66524;BME280;53350;52.210;5.160;2023-03-01T02:30:36;103219.09;;;2.88;66.71
66524;BME280;53350;52.210;5.160;2023-03-01T02:33:24;103224.28;;;2.90;66.35
66524;BME280;53350;52.210;5.160;2023-03-01T02:35:50;103214.97;;;2.90;66.53
66524;BME280;53350;52.210;5.160;2023-03-01T02:38:19;103219.19;;;2.90;66.72
66524;BME280;53350;52.210;5.160;2023-03-01T02:40:47;103216.63;;;2.90;66.44
66524;BME280;53350;52.210;5.160;2023-03-01T02:43:16;103202.84;;;2.86;66.50
66524;BME280;53350;52.210;5.160;2023-03-01T02:45:49;103203.72;;;2.87;66.24
66524;BME280;53350;52.210;5.160;2023-03-01T02:48:16;103203.63;;;2.85;66.39
66524;BME280;53350;52.210;5.160;2023-03-01T02:50:55;103206.81;;;2.81;65.98
66524;BME280;53350;52.210;5.160;2023-03-01T02:53:33;103187.91;;;2.77;66.13
66524;BME280;53350;52.210;5.160;2023-03-01T02:56:01;103197.22;;;2.77;66.10
66524;BME280;53350;52.210;5.160;2023-03-01T02:58:27;103194.59;;;2.75;66.07
66524;BME280;53350;52.210;5.160;2023-03-01T03:00:56;103193.53;;;2.72;66.01
66524;BME280;53350;52.210;5.160;2023-03-01T03:03:25;103195.13;;;2.70;66.05
66524;BME280;53350;52.210;5.160;2023-03-01T03:05:52;103195.91;;;2.69;66.36
66524;BME280;53350;52.210;5.160;2023-03-01T03:08:19;103183.94;;;2.68;66.34
66524;BME280;53350;52.210;5.160;2023-03-01T03:10:48;103182.31;;;2.68;66.15
66524;BME280;53350;52.210;5.160;2023-03-01T03:13:15;103185.63;;;2.67;66.09
66524;BME280;53350;52.210;5.160;2023-03-01T03:15:43;103185.63;;;2.67;66.15
66524;BME280;53350;52.210;5.160;2023-03-01T03:18:13;103187.13;;;2.64;66.04
66524;BME280;53350;52.210;5.160;2023-03-01T03:20:41;103187.81;;;2.61;66.29
66524;BME280;53350;52.210;5.160;2023-03-01T03:23:08;103179.22;;;2.59;66.16
66524;BME280;53350;52.210;5.160;2023-03-01T03:25:35;103177.47;;;2.58;66.39
66524;BME280;53350;52.210;5.160;2023-03-01T03:28:03;103176.66;;;2.59;65.99
66524;BME280;53350;52.210;5.160;2023-03-01T03:30:35;103178.34;;;2.58;66.07
66524;BME280;53350;52.210;5.160;2023-03-01T03:33:04;103167.31;;;2.58;66.10
66524;BME280;53350;52.210;5.160;2023-03-01T03:35:37;103168.84;;;2.56;65.96
66524;BME280;53350;52.210;5.160;2023-03-01T03:38:07;103152.47;;;2.51;66.02
66524;BME280;53350;52.210;5.160;2023-03-01T03:40:42;103161.22;;;2.56;65.92
66524;BME280;53350;52.210;5.160;2023-03-01T03:43:10;103164.53;;;2.55;65.54
66524;BME280;53350;52.210;5.160;2023-03-01T03:45:37;103167.91;;;2.54;65.84
66524;BME280;53350;52.210;5.160;2023-03-01T03:48:06;103158.41;;;2.51;65.85
66524;BME280;53350;52.210;5.160;2023-03-01T03:50:34;103170.28;;;2.51;65.81
66524;BME280;53350;52.210;5.160;2023-03-01T03:53:02;103153.94;;;2.47;65.54
66524;BME280;53350;52.210;5.160;2023-03-01T03:55:29;103166.56;;;2.46;65.44
66524;BME280;53350;52.210;5.160;2023-03-01T03:57:57;103159.44;;;2.40;65.68
66524;BME280;53350;52.210;5.160;2023-03-01T04:00:27;103162.78;;;2.39;65.92
66524;BME280;53350;52.210;5.160;2023-03-01T04:02:54;103160.94;;;2.36;65.86
66524;BME280;53350;52.210;5.160;2023-03-01T04:05:21;103160.06;;;2.36;65.61
66524;BME280;53350;52.210;5.160;2023-03-01T04:07:49;103160.88;;;2.35;65.59
66524;BME280;53350;52.210;5.160;2023-03-01T04:10:26;103159.09;;;2.34;65.80
66524;BME280;53350;52.210;5.160;2023-03-01T04:12:53;103157.34;;;2.33;66.05
66524;BME280;53350;52.210;5.160;2023-03-01T04:15:22;103164.09;;;2.32;65.92
66524;BME280;53350;52.210;5.160;2023-03-01T04:17:50;103162.34;;;2.31;65.64
66524;BME280;53350;52.210;5.160;2023-03-01T04:20:18;103162.34;;;2.31;65.78
66524;BME280;53350;52.210;5.160;2023-03-01T04:22:51;103154.59;;;2.30;65.42
66524;BME280;53350;52.210;5.160;2023-03-01T04:25:18;103155.31;;;2.27;65.81
66524;BME280;53350;52.210;5.160;2023-03-01T04:27:44;103156.81;;;2.23;65.39
66524;BME280;53350;52.210;5.160;2023-03-01T04:30:11;103162.56;;;2.21;66.02
66524;BME280;53350;52.210;5.160;2023-03-01T04:32:38;103171.06;;;2.21;65.66
66524;BME280;53350;52.210;5.160;2023-03-01T04:35:04;103162.56;;;2.21;65.92
66524;BME280;53350;52.210;5.160;2023-03-01T04:37:31;103159.25;;;2.22;65.83
66524;BME280;53350;52.210;5.160;2023-03-01T04:39:58;103155.81;;;2.21;66.04
66524;BME280;53350;52.210;5.160;2023-03-01T04:42:25;103151.63;;;2.22;65.96
66524;BME280;53350;52.210;5.160;2023-03-01T04:44:51;103147.31;;;2.21;65.78
66524;BME280;53350;52.210;5.160;2023-03-01T04:47:18;103151.53;;;2.20;65.70
66524;BME280;53350;52.210;5.160;2023-03-01T04:49:44;103149.00;;;2.20;65.61
66524;BME280;53350;52.210;5.160;2023-03-01T04:52:11;103151.53;;;2.20;65.66
66524;BME280;53350;52.210;5.160;2023-03-01T04:54:37;103146.44;;;2.20;65.73
66524;BME280;53350;52.210;5.160;2023-03-01T04:57:05;103143.91;;;2.20;65.44
66524;BME280;53350;52.210;5.160;2023-03-01T04:59:32;103142.22;;;2.21;65.50
66524;BME280;53350;52.210;5.160;2023-03-01T05:01:58;103138.81;;;2.20;65.93
66524;BME280;53350;52.210;5.160;2023-03-01T05:04:25;103143.91;;;2.20;65.43
66524;BME280;53350;52.210;5.160;2023-03-01T05:06:52;103131.09;;;2.19;65.76
66524;BME280;53350;52.210;5.160;2023-03-01T05:09:19;103131.88;;;2.18;65.72
66524;BME280;53350;52.210;5.160;2023-03-01T05:11:45;103120.94;;;2.19;65.69
66524;BME280;53350;52.210;5.160;2023-03-01T05:14:13;103126.03;;;2.19;65.73
66524;BME280;53350;52.210;5.160;2023-03-01T05:16:40;103128.66;;;2.20;65.75
66524;BME280;53350;52.210;5.160;2023-03-01T05:19:06;103127.84;;;2.21;65.94
66524;BME280;53350;52.210;5.160;2023-03-01T05:21:36;103121.88;;;2.21;65.55
66524;BME280;53350;52.210;5.160;2023-03-01T05:24:23;103121.13;;;2.22;65.34
66524;BME280;53350;52.210;5.160;2023-03-01T05:26:49;103110.13;;;2.23;65.43
66524;BME280;53350;52.210;5.160;2023-03-01T05:29:19;103116.13;;;2.23;65.93
66524;BME280;53350;52.210;5.160;2023-03-01T05:31:50;103099.19;;;2.24;65.55
66524;BME280;53350;52.210;5.160;2023-03-01T05:34:17;103092.41;;;2.24;65.92
66524;BME280;53350;52.210;5.160;2023-03-01T05:36:44;103095.09;;;2.26;65.86
66524;BME280;53350;52.210;5.160;2023-03-01T05:39:10;103090.00;;;2.26;65.50
66524;BME280;53350;52.210;5.160;2023-03-01T05:41:37;103094.09;;;2.24;65.97
66524;BME280;53350;52.210;5.160;2023-03-01T05:44:05;103090.59;;;2.22;66.06
66524;BME280;53350;52.210;5.160;2023-03-01T05:46:33;103077.97;;;2.23;65.69
66524;BME280;53350;52.210;5.160;2023-03-01T05:49:00;103077.97;;;2.23;65.89
66524;BME280;53350;52.210;5.160;2023-03-01T05:51:27;103080.59;;;2.25;65.95
66524;BME280;53350;52.210;5.160;2023-03-01T05:53:54;103077.06;;;2.23;66.19
66524;BME280;53350;52.210;5.160;2023-03-01T05:56:20;103079.44;;;2.20;66.42
66524;BME280;53350;52.210;5.160;2023-03-01T05:58:47;103081.03;;;2.18;66.55
66524;BME280;53350;52.210;5.160;2023-03-01T06:01:14;103083.56;;;2.18;66.25
66524;BME280;53350;52.210;5.160;2023-03-01T06:03:42;103074.19;;;2.17;66.51
66524;BME280;53350;52.210;5.160;2023-03-01T06:06:08;103082.72;;;2.17;66.57
66524;BME280;53350;52.210;5.160;2023-03-01T06:08:35;103080.25;;;2.19;66.50
66524;BME280;53350;52.210;5.160;2023-03-01T06:11:01;103083.66;;;2.19;66.79
66524;BME280;53350;52.210;5.160;2023-03-01T06:13:27;103084.53;;;2.20;66.61
66524;BME280;53350;52.210;5.160;2023-03-01T06:15:54;103081.97;;;2.20;66.31
66524;BME280;53350;52.210;5.160;2023-03-01T06:18:21;103076.91;;;2.20;66.49
66524;BME280;53350;52.210;5.160;2023-03-01T06:20:53;103071.81;;;2.20;66.69
66524;BME280;53350;52.210;5.160;2023-03-01T06:23:20;103081.97;;;2.20;66.59
66524;BME280;53350;52.210;5.160;2023-03-01T06:25:46;103079.34;;;2.18;66.65
66524;BME280;53350;52.210;5.160;2023-03-01T06:28:13;103082.72;;;2.17;66.57
66524;BME280;53350;52.210;5.160;2023-03-01T06:30:39;103086.97;;;2.18;66.78
66524;BME280;53350;52.210;5.160;2023-03-01T06:33:06;103080.25;;;2.19;66.55
66524;BME280;53350;52.210;5.160;2023-03-01T06:35:32;103092.16;;;2.20;66.80
66524;BME280;53350;52.210;5.160;2023-03-01T06:38:02;103093.84;;;2.19;66.70
66524;BME280;53350;52.210;5.160;2023-03-01T06:40:29;103089.63;;;2.20;67.02
66524;BME280;53350;52.210;5.160;2023-03-01T06:42:57;103094.78;;;2.21;66.81
66524;BME280;53350;52.210;5.160;2023-03-01T06:45:24;103093.13;;;2.22;66.60
66524;BME280;53350;52.210;5.160;2023-03-01T06:47:50;103097.41;;;2.23;66.85
66524;BME280;53350;52.210;5.160;2023-03-01T06:50:17;103079.25;;;2.17;66.63
66524;BME280;53350;52.210;5.160;2023-03-01T06:52:44;103090.00;;;2.26;66.84
66524;BME280;53350;52.210;5.160;2023-03-01T06:55:13;103096.81;;;2.27;66.65
66524;BME280;53350;52.210;5.160;2023-03-01T06:57:39;103094.44;;;2.30;66.70
66524;BME280;53350;52.210;5.160;2023-03-01T07:00:07;103087.81;;;2.32;66.88
66524;BME280;53350;52.210;5.160;2023-03-01T07:02:33;103083.66;;;2.34;67.16
66524;BME280;53350;52.210;5.160;2023-03-01T07:05:00;103085.44;;;2.35;66.68
66524;BME280;53350;52.210;5.160;2023-03-01T07:07:26;103089.75;;;2.36;67.37
66524;BME280;53350;52.210;5.160;2023-03-01T07:09:52;103083.94;;;2.39;67.75
66524;BME280;53350;52.210;5.160;2023-03-01T07:12:20;103086.59;;;2.40;67.08
66524;BME280;53350;52.210;5.160;2023-03-01T07:14:47;103086.75;;;2.43;67.92
66524;BME280;53350;52.210;5.160;2023-03-01T07:17:13;103086.13;;;2.48;68.04
66524;BME280;53350;52.210;5.160;2023-03-01T07:19:40;103102.44;;;2.51;67.92
66524;BME280;53350;52.210;5.160;2023-03-01T07:22:06;103093.22;;;2.53;68.00
66524;BME280;53350;52.210;5.160;2023-03-01T07:24:34;103095.16;;;2.57;68.45
66524;BME280;53350;52.210;5.160;2023-03-01T07:27:01;103095.72;;;2.67;68.27
66524;BME280;53350;52.210;5.160;2023-03-01T07:29:28;103108.06;;;2.75;68.70
66524;BME280;53350;52.210;5.160;2023-03-01T07:31:55;103102.09;;;2.90;69.05
66524;BME280;53350;52.210;5.160;2023-03-01T07:34:21;103097.66;;;3.02;68.99
66524;BME280;53350;52.210;5.160;2023-03-01T07:36:48;103099.22;;;3.15;68.90
66524;BME280;53350;52.210;5.160;2023-03-01T07:39:14;103095.69;;;3.28;68.85
66524;BME280;53350;52.210;5.160;2023-03-01T07:41:41;103097.31;;;3.42;68.62
66524;BME280;53350;52.210;5.160;2023-03-01T07:44:07;103086.97;;;3.56;68.50
66524;BME280;53350;52.210;5.160;2023-03-01T07:46:35;103093.50;;;3.67;68.31
66524;BME280;53350;52.210;5.160;2023-03-01T07:49:02;103091.69;;;3.81;68.27
66524;BME280;53350;52.210;5.160;2023-03-01T07:51:29;103100.81;;;3.94;67.77
66524;BME280;53350;52.210;5.160;2023-03-01T07:53:56;103094.69;;;4.07;67.72
66524;BME280;53350;52.210;5.160;2023-03-01T07:56:22;103092.84;;;4.21;67.45
66524;BME280;53350;52.210;5.160;2023-03-01T07:58:49;103091.84;;;4.35;66.87
66524;BME280;53350;52.210;5.160;2023-03-01T08:01:17;103091.66;;;4.48;66.10
66524;BME280;53350;52.210;5.160;2023-03-01T08:03:45;103095.47;;;4.57;65.21
66524;BME280;53350;52.210;5.160;2023-03-01T08:06:13;103094.97;;;4.64;64.53
66524;BME280;53350;52.210;5.160;2023-03-01T08:08:40;103100.44;;;4.72;64.76
66524;BME280;53350;52.210;5.160;2023-03-01T08:11:09;103091.69;;;4.84;64.48
66524;BME280;53350;52.210;5.160;2023-03-01T08:13:36;103096.56;;;4.98;64.46
66524;BME280;53350;52.210;5.160;2023-03-01T08:16:04;103096.28;;;5.10;63.84
66524;BME280;53350;52.210;5.160;2023-03-01T08:18:31;103096.72;;;5.19;63.23
66524;BME280;53350;52.210;5.160;2023-03-01T08:21:02;103098.91;;;5.29;63.09
66524;BME280;53350;52.210;5.160;2023-03-01T08:23:29;103096.88;;;5.42;62.63
66524;BME280;53350;52.210;5.160;2023-03-01T08:26:03;103090.44;;;5.50;62.57
66524;BME280;53350;52.210;5.160;2023-03-01T08:28:30;103099.16;;;5.53;62.14
66524;BME280;53350;52.210;5.160;2023-03-01T08:30:56;103089.84;;;5.55;60.97
66524;BME280;53350;52.210;5.160;2023-03-01T08:33:22;103090.06;;;5.60;60.51
66524;BME280;53350;52.210;5.160;2023-03-01T08:35:49;103077.47;;;5.65;60.15
66524;BME280;53350;52.210;5.160;2023-03-01T08:38:17;103080.25;;;5.69;60.10
66524;BME280;53350;52.210;5.160;2023-03-01T08:40:43;103081.38;;;5.76;59.95
66524;BME280;53350;52.210;5.160;2023-03-01T08:43:09;103072.16;;;5.80;58.73
66524;BME280;53350;52.210;5.160;2023-03-01T08:45:36;103076.38;;;5.79;58.74
66524;BME280;53350;52.210;5.160;2023-03-01T08:48:02;103073.03;;;5.80;57.90
66524;BME280;53350;52.210;5.160;2023-03-01T08:50:29;103076.69;;;5.85;57.87
66524;BME280;53350;52.210;5.160;2023-03-01T08:52:55;103067.50;;;5.90;57.42
66524;BME280;53350;52.210;5.160;2023-03-01T08:55:23;103078.91;;;5.97;56.99
66524;BME280;53350;52.210;5.160;2023-03-01T08:57:49;103065.41;;;6.00;56.62
66524;BME280;53350;52.210;5.160;2023-03-01T09:00:17;103063.88;;;6.05;56.90
66524;BME280;53350;52.210;5.160;2023-03-01T09:02:43;103058.97;;;6.09;56.90
66524;BME280;53350;52.210;5.160;2023-03-01T09:05:09;103059.25;;;6.16;56.93
66524;BME280;53350;52.210;5.160;2023-03-01T09:07:36;103064.53;;;6.20;56.03
66524;BME280;53350;52.210;5.160;2023-03-01T09:10:03;103065.34;;;6.19;55.48
66524;BME280;53350;52.210;5.160;2023-03-01T09:12:31;103061.31;;;6.05;56.50
66524;BME280;53350;52.210;5.160;2023-03-01T09:14:57;103052.53;;;5.98;56.98
66524;BME280;53350;52.210;5.160;2023-03-01T09:17:24;103046.53;;;5.98;56.72
66524;BME280;53350;52.210;5.160;2023-03-01T09:19:50;103034.50;;;5.97;56.21
66524;BME280;53350;52.210;5.160;2023-03-01T09:22:17;103040.53;;;5.97;55.88
66524;BME280;53350;52.210;5.160;2023-03-01T09:24:43;103028.63;;;5.98;55.87
66524;BME280;53350;52.210;5.160;2023-03-01T09:27:10;103020.34;;;6.03;55.40
66524;BME280;53350;52.210;5.160;2023-03-01T09:29:39;103023.75;;;6.04;54.97
66524;BME280;53350;52.210;5.160;2023-03-01T09:32:05;103030.06;;;6.12;54.20
66524;BME280;53350;52.210;5.160;2023-03-01T09:34:33;103025.31;;;6.00;53.89
66524;BME280;53350;52.210;5.160;2023-03-01T09:37:19;103018.50;;;6.01;54.20
66524;BME280;53350;52.210;5.160;2023-03-01T09:39:46;103023.91;;;6.07;54.75
66524;BME280;53350;52.210;5.160;2023-03-01T09:42:13;103021.47;;;6.10;53.78
66524;BME280;53350;52.210;5.160;2023-03-01T09:44:43;103026.59;;;6.10;54.22
66524;BME280;53350;52.210;5.160;2023-03-01T09:47:16;103027.50;;;6.12;53.87
66524;BME280;53350;52.210;5.160;2023-03-01T09:49:45;103018.09;;;6.11;54.07
66524;BME280;53350;52.210;5.160;2023-03-01T09:52:23;103029.47;;;6.18;53.67
66524;BME280;53350;52.210;5.160;2023-03-01T09:54:54;103036.16;;;6.14;53.32
66524;BME280;53350;52.210;5.160;2023-03-01T09:57:26;103038.66;;;6.13;53.55
66524;BME280;53350;52.210;5.160;2023-03-01T10:00:10;103032.00;;;6.18;52.98
66524;BME280;53350;52.210;5.160;2023-03-01T10:02:44;103027.97;;;6.23;53.40
66524;BME280;53350;52.210;5.160;2023-03-01T10:05:19;103023.16;;;6.31;53.15
66524;BME280;53350;52.210;5.160;2023-03-01T10:07:56;103013.16;;;6.37;53.53
66524;BME280;53350;52.210;5.160;2023-03-01T10:10:29;103021.59;;;6.34;53.12
66524;BME280;53350;52.210;5.160;2023-03-01T10:13:00;103015.34;;;6.28;53.68
66524;BME280;53350;52.210;5.160;2023-03-01T10:15:35;103020.72;;;6.34;52.98
66524;BME280;53350;52.210;5.160;2023-03-01T10:18:06;103012.25;;;6.35;52.82
66524;BME280;53350;52.210;5.160;2023-03-01T10:20:43;103012.28;;;6.36;51.50
66524;BME280;53350;52.210;5.160;2023-03-01T10:23:12;103016.56;;;6.36;51.63
66524;BME280;53350;52.210;5.160;2023-03-01T10:25:47;103011.50;;;6.37;51.50
66524;BME280;53350;52.210;5.160;2023-03-01T10:28:17;103005.72;;;6.43;51.54
66524;BME280;53350;52.210;5.160;2023-03-01T10:30:47;103000.03;;;6.50;51.43
66524;BME280;53350;52.210;5.160;2023-03-01T10:33:17;102988.88;;;6.48;51.16
66524;BME280;53350;52.210;5.160;2023-03-01T10:35:46;103000.75;;;6.46;50.92
66524;BME280;53350;52.210;5.160;2023-03-01T10:38:15;103001.16;;;6.57;50.76
66524;BME280;53350;52.210;5.160;2023-03-01T10:40:52;103001.28;;;6.60;50.75
66524;BME280;53350;52.210;5.160;2023-03-01T10:43:20;103003.03;;;6.61;50.02
66524;BME280;53350;52.210;5.160;2023-03-01T10:45:49;102990.34;;;6.64;49.48
66524;BME280;53350;52.210;5.160;2023-03-01T10:48:18;102991.16;;;6.63;49.66
66524;BME280;53350;52.210;5.160;2023-03-01T10:50:48;102978.91;;;6.56;50.65
66524;BME280;53350;52.210;5.160;2023-03-01T10:53:23;102977.47;;;6.63;49.89
66524;BME280;53350;52.210;5.160;2023-03-01T10:56:00;102974.00;;;6.60;50.70
66524;BME280;53350;52.210;5.160;2023-03-01T10:58:29;102970.34;;;6.76;50.21
66524;BME280;53350;52.210;5.160;2023-03-01T11:00:58;102978.75;;;6.74;49.54
66524;BME280;53350;52.210;5.160;2023-03-01T11:03:27;102954.91;;;6.75;50.11
66524;BME280;53350;52.210;5.160;2023-03-01T11:06:03;102962.19;;;6.87;49.57
66524;BME280;53350;52.210;5.160;2023-03-01T11:08:36;102955.94;;;6.80;49.48
66524;BME280;53350;52.210;5.160;2023-03-01T11:11:14;102946.59;;;6.82;49.10
66524;BME280;53350;52.210;5.160;2023-03-01T11:13:57;102948.53;;;6.88;48.90
66524;BME280;53350;52.210;5.160;2023-03-01T11:16:32;102942.66;;;6.90;48.87
66524;BME280;53350;52.210;5.160;2023-03-01T11:19:12;102942.88;;;6.96;48.73
66524;BME280;53350;52.210;5.160;2023-03-01T11:21:43;102938.81;;;7.02;47.92
66524;BME280;53350;52.210;5.160;2023-03-01T11:24:13;102929.47;;;7.04;47.74
66524;BME280;53350;52.210;5.160;2023-03-01T11:26:43;102930.59;;;6.88;48.94
66524;BME280;53350;52.210;5.160;2023-03-01T11:29:16;102928.44;;;6.99;48.00
66524;BME280;53350;52.210;5.160;2023-03-01T11:31:45;102922.66;;;7.04;47.18
66524;BME280;53350;52.210;5.160;2023-03-01T11:34:15;102925.19;;;7.03;46.89
66524;BME280;53350;52.210;5.160;2023-03-01T11:36:47;102925.28;;;7.06;47.29
66524;BME280;53350;52.210;5.160;2023-03-01T11:39:22;102904.03;;;7.08;47.44
66524;BME280;53350;52.210;5.160;2023-03-01T11:42:02;102914.97;;;7.04;47.47
66524;BME280;53350;52.210;5.160;2023-03-01T11:44:33;102915.28;;;7.13;47.32
66524;BME280;53350;52.210;5.160;2023-03-01T11:47:12;102898.97;;;7.10;47.22
66524;BME280;53350;52.210;5.160;2023-03-01T11:49:51;102910.28;;;7.17;47.24
66524;BME280;53350;52.210;5.160;2023-03-01T11:52:27;102908.59;;;7.17;47.48
66524;BME280;53350;52.210;5.160;2023-03-01T11:55:12;102902.09;;;7.27;46.82
66524;BME280;53350;52.210;5.160;2023-03-01T11:57:54;102902.22;;;7.30;46.64
66524;BME280;53350;52.210;5.160;2023-03-01T12:00:39;102902.97;;;7.27;46.55
66524;BME280;53350;52.210;5.160;2023-03-01T12:03:28;102909.78;;;7.27;46.78
66524;BME280;53350;52.210;5.160;2023-03-01T12:06:18;102909.16;;;7.34;45.82
66524;BME280;53350;52.210;5.160;2023-03-01T12:09:00;102896.91;;;7.25;46.29
66524;BME280;53350;52.210;5.160;2023-03-01T12:11:38;102897.16;;;7.31;46.42
66524;BME280;53350;52.210;5.160;2023-03-01T12:14:25;102893.03;;;7.37;46.21
66524;BME280;53350;52.210;5.160;2023-03-01T12:17:16;102890.47;;;7.37;46.28
66524;BME280;53350;52.210;5.160;2023-03-01T12:20:02;102877.75;;;7.40;45.63
66524;BME280;53350;52.210;5.160;2023-03-01T12:22:39;102876.13;;;7.42;45.97
66524;BME280;53350;52.210;5.160;2023-03-01T12:25:29;102876.28;;;7.46;45.93
66524;BME280;53350;52.210;5.160;2023-03-01T12:28:33;102885.72;;;7.47;46.10
66524;BME280;53350;52.210;5.160;2023-03-01T12:31:22;102872.09;;;7.50;47.00
66524;BME280;53350;52.210;5.160;2023-03-01T12:34:02;102878.31;;;7.57;46.44
66524;BME280;53350;52.210;5.160;2023-03-01T12:36:49;102869.66;;;7.53;46.30
66524;BME280;53350;52.210;5.160;2023-03-01T12:39:27;102874.91;;;7.56;45.50
66524;BME280;53350;52.210;5.160;2023-03-01T12:42:04;102868.22;;;7.61;45.43
66524;BME280;53350;52.210;5.160;2023-03-01T12:44:47;102865.06;;;7.70;45.65
66524;BME280;53350;52.210;5.160;2023-03-01T12:47:29;102861.13;;;7.80;45.00
66524;BME280;53350;52.210;5.160;2023-03-01T12:50:03;102860.06;;;7.75;45.50
66524;BME280;53350;52.210;5.160;2023-03-01T12:52:37;102864.31;;;7.73;45.39
66524;BME280;53350;52.210;5.160;2023-03-01T12:55:14;102867.16;;;7.82;45.13
66524;BME280;53350;52.210;5.160;2023-03-01T12:57:46;102862.16;;;7.85;45.16
66524;BME280;53350;52.210;5.160;2023-03-01T13:00:25;102844.78;;;7.76;45.69
66524;BME280;53350;52.210;5.160;2023-03-01T13:02:58;102847.53;;;7.82;44.94
66524;BME280;53350;52.210;5.160;2023-03-01T13:05:34;102841.06;;;7.95;44.53
66524;BME280;53350;52.210;5.160;2023-03-01T13:08:12;102836.94;;;8.00;44.22
66524;BME280;53350;52.210;5.160;2023-03-01T13:10:45;102819.69;;;7.96;44.46
66524;BME280;53350;52.210;5.160;2023-03-01T13:13:18;102831.72;;;7.97;44.80
66524;BME280;53350;52.210;5.160;2023-03-01T13:15:46;102823.44;;;8.06;43.99